createdAt,value
2023-03-08T00:02:28.705Z,66.94
2023-03-08T00:05:01.980Z,66.31
2023-03-08T00:07:34.968Z,66.40
2023-03-08T00:10:08.022Z,66.52
2023-03-08T00:12:42.386Z,66.77
2023-03-08T00:15:15.251Z,66.85
2023-03-08T00:17:48.357Z,67.48
2023-03-08T00:20:21.093Z,67.00
2023-03-08T00:22:53.829Z,66.91
2023-03-08T00:25:27.175Z,67.51
2023-03-08T00:28:01.228Z,67.36
2023-03-08T00:30:33.954Z,67.48
2023-03-08T00:33:06.683Z,66.96
2023-03-08T00:35:39.390Z,67.29
2023-03-08T00:38:12.104Z,67.52
2023-03-08T00:40:44.801Z,67.71
2023-03-08T00:43:19.073Z,67.33
2023-03-08T00:45:53.122Z,67.68
2023-03-08T00:48:26.228Z,67.67
2023-03-08T00:50:58.908Z,67.57
2023-03-08T00:53:31.713Z,67.79
2023-03-08T00:56:04.532Z,67.56
2023-03-08T00:58:39.507Z,67.01
2023-03-08T01:01:15.246Z,67.36
2023-03-08T01:03:48.101Z,67.33
2023-03-08T01:06:20.817Z,67.47
2023-03-08T01:08:53.553Z,67.85
2023-03-08T01:11:26.931Z,67.45
2023-03-08T01:14:00.975Z,67.81
2023-03-08T01:16:34.673Z,68.11
2023-03-08T01:19:07.401Z,67.82
2023-03-08T01:21:40.071Z,67.79
2023-03-08T01:24:13.035Z,67.52
2023-03-08T01:26:45.732Z,67.74
2023-03-08T01:29:19.846Z,67.75
2023-03-08T01:31:52.499Z,67.78
2023-03-08T01:34:25.316Z,67.54
2023-03-08T01:36:57.994Z,67.93
2023-03-08T01:39:30.675Z,67.82
2023-03-08T01:42:07.214Z,67.83
2023-03-08T01:44:55.590Z,67.96
2023-03-08T01:47:29.105Z,67.71
2023-03-08T01:50:04.252Z,67.68
2023-03-08T01:52:39.118Z,67.65
2023-03-08T01:55:13.747Z,67.82
2023-03-08T01:57:48.670Z,67.88
2023-03-08T02:00:23.143Z,67.75
2023-03-08T02:02:59.390Z,67.58
2023-03-08T02:05:32.811Z,67.38
2023-03-08T02:08:05.665Z,67.25
2023-03-08T02:10:39.176Z,67.28
2023-03-08T02:13:12.584Z,67.08
2023-03-08T02:15:45.436Z,67.20
2023-03-08T02:18:19.606Z,67.41
2023-03-08T02:20:52.294Z,67.50
2023-03-08T02:23:26.657Z,67.18
2023-03-08T02:26:01.736Z,67.47
2023-03-08T02:28:34.664Z,68.18
2023-03-08T02:31:07.605Z,68.06
2023-03-08T02:33:40.325Z,67.64
2023-03-08T02:36:19.594Z,66.71
2023-03-08T02:38:53.694Z,67.41
2023-03-08T02:41:26.638Z,67.55
2023-03-08T02:43:59.412Z,67.25
2023-03-08T02:46:32.272Z,66.98
2023-03-08T02:49:05.308Z,67.08
2023-03-08T02:51:38.473Z,67.04
2023-03-08T02:54:12.556Z,66.89
2023-03-08T02:56:45.315Z,66.46
2023-03-08T02:59:18.058Z,66.71
2023-03-08T03:01:52.373Z,67.02
2023-03-08T03:04:25.313Z,66.58
2023-03-08T03:06:58.745Z,66.98
2023-03-08T03:09:32.918Z,66.83
2023-03-08T03:12:05.884Z,66.83
2023-03-08T03:14:38.548Z,66.92
2023-03-08T03:17:11.332Z,67.23
2023-03-08T03:19:44.006Z,66.73
2023-03-08T03:22:16.872Z,66.92
2023-03-08T03:24:52.250Z,66.99
2023-03-08T03:27:24.945Z,67.73
2023-03-08T03:29:57.653Z,67.28
2023-03-08T03:32:30.526Z,67.50
2023-03-08T03:35:03.387Z,67.77
2023-03-08T03:37:36.859Z,67.41
2023-03-08T03:40:11.931Z,68.23
2023-03-08T03:42:44.646Z,68.32
2023-03-08T03:45:17.489Z,68.00
2023-03-08T03:47:50.256Z,67.95
2023-03-08T03:50:24.175Z,68.23
2023-03-08T03:52:56.950Z,67.69
2023-03-08T03:55:31.016Z,68.11
2023-03-08T03:58:03.786Z,68.01
2023-03-08T04:00:36.454Z,67.96
2023-03-08T04:03:09.273Z,68.72
2023-03-08T04:05:41.991Z,68.95
2023-03-08T04:08:15.005Z,68.63
2023-03-08T04:10:49.114Z,68.79
2023-03-08T04:13:22.275Z,68.23
2023-03-08T04:15:55.030Z,68.05
2023-03-08T04:18:27.770Z,68.48
2023-03-08T04:21:00.605Z,68.06
2023-03-08T04:23:33.723Z,68.31
2023-03-08T04:26:08.320Z,68.93
2023-03-08T04:28:41.090Z,68.31
2023-03-08T04:31:14.967Z,68.44
2023-03-08T04:33:48.167Z,69.03
2023-03-08T04:36:21.626Z,68.42
2023-03-08T04:38:54.421Z,68.73
2023-03-08T04:41:28.541Z,69.25
2023-03-08T04:44:01.399Z,69.14
2023-03-08T04:46:34.192Z,69.32
2023-03-08T04:49:06.990Z,69.10
2023-03-08T04:51:39.692Z,68.95
2023-03-08T04:54:12.712Z,68.93
2023-03-08T04:56:46.733Z,68.37
2023-03-08T04:59:19.416Z,69.04
2023-03-08T05:01:52.153Z,68.51
2023-03-08T15:01:26.791Z,70.03
2023-03-08T15:03:59.861Z,71.06
2023-03-08T15:06:34.283Z,70.75
2023-03-08T15:09:08.599Z,70.62
2023-03-08T15:11:41.725Z,70.35
2023-03-08T15:14:14.757Z,69.71
2023-03-08T15:16:51.282Z,70.08
2023-03-08T15:19:24.017Z,70.00
2023-03-08T15:21:56.983Z,70.82
2023-03-08T15:24:29.755Z,69.77
2023-03-08T15:27:02.507Z,69.64
2023-03-08T15:29:36.924Z,69.74
2023-03-08T15:32:11.725Z,68.93
2023-03-08T15:34:44.490Z,69.47
2023-03-08T15:37:17.387Z,69.20
2023-03-08T15:39:50.115Z,69.21
2023-03-08T15:42:23.014Z,69.28
2023-03-08T15:44:55.665Z,69.43
2023-03-08T15:47:29.969Z,69.64
2023-03-08T15:50:03.106Z,69.37
2023-03-08T15:52:35.877Z,69.42
2023-03-08T15:55:09.517Z,69.15
2023-03-08T15:57:43.410Z,69.27
2023-03-08T16:00:17.748Z,69.35
2023-03-08T16:02:52.563Z,69.26
2023-03-08T16:05:26.745Z,69.53
2023-03-08T16:08:00.586Z,69.88
2023-03-08T16:10:40.282Z,70.25
2023-03-08T16:13:13.023Z,70.04
2023-03-08T16:15:46.082Z,70.11
2023-03-08T16:18:20.353Z,70.16
2023-03-08T16:20:53.015Z,70.31
2023-03-08T16:23:25.692Z,69.98
2023-03-08T16:26:13.604Z,69.96
2023-03-08T16:28:48.124Z,69.94
2023-03-08T16:31:21.890Z,70.14
2023-03-08T16:33:56.130Z,70.20
2023-03-08T16:36:28.769Z,70.04
2023-03-08T16:39:01.638Z,70.11
2023-03-08T16:41:34.492Z,70.39
2023-03-08T16:44:07.958Z,69.95
2023-03-08T16:46:42.627Z,69.88
2023-03-08T16:49:16.964Z,70.12
2023-03-08T16:51:50.395Z,70.37
2023-03-08T16:54:23.524Z,70.67
2023-03-08T16:56:56.194Z,70.57
2023-03-08T16:59:28.865Z,70.56
2023-03-08T17:02:01.596Z,70.67
2023-03-08T17:04:35.772Z,70.77
2023-03-08T17:07:08.818Z,71.05
2023-03-08T17:09:41.904Z,71.17
2023-03-08T17:12:14.721Z,71.46
2023-03-08T17:14:47.528Z,71.73
2023-03-08T17:17:20.166Z,72.11
2023-03-08T17:19:54.811Z,72.28
2023-03-08T17:22:27.462Z,72.08
2023-03-08T17:25:00.288Z,72.49
2023-03-08T17:27:32.950Z,72.45
2023-03-08T17:30:06.194Z,72.39
2023-03-08T17:32:38.941Z,72.80
2023-03-08T17:35:13.133Z,72.79
2023-03-08T17:37:46.091Z,73.28
2023-03-08T17:40:19.750Z,72.91
2023-03-08T17:42:52.535Z,72.82
2023-03-08T17:45:25.420Z,73.40
2023-03-08T17:48:02.656Z,73.38
2023-03-08T17:50:36.951Z,73.73
2023-03-08T17:53:12.762Z,73.45
2023-03-08T17:55:45.523Z,73.48
2023-03-08T17:58:20.007Z,73.69
2023-03-08T18:00:52.932Z,73.74
2023-03-08T18:03:25.881Z,73.18
2023-03-08T18:05:59.918Z,73.20
2023-03-08T18:08:32.736Z,73.99
2023-03-08T18:11:05.582Z,73.89
2023-03-08T18:13:40.633Z,74.02
2023-03-08T18:16:13.890Z,73.39
2023-03-08T18:18:50.243Z,73.92
2023-03-08T18:21:24.433Z,73.54
2023-03-08T18:23:57.087Z,73.95
2023-03-08T18:26:29.882Z,73.61
2023-03-08T18:29:02.533Z,73.96
2023-03-08T18:31:37.377Z,73.83
2023-03-08T18:34:10.531Z,74.21
2023-03-08T18:36:44.816Z,73.70
2023-03-08T18:39:17.593Z,73.62
2023-03-08T18:41:50.326Z,73.70
2023-03-08T18:44:23.073Z,73.64
2023-03-08T18:46:56.078Z,74.34
2023-03-08T18:49:28.845Z,74.18
2023-03-08T18:52:04.855Z,73.93
2023-03-08T18:54:38.742Z,74.34
2023-03-08T18:57:11.445Z,73.98
2023-03-08T18:59:44.231Z,73.89
2023-03-08T19:02:19.060Z,74.56
2023-03-08T19:04:52.870Z,74.39
2023-03-08T19:07:27.116Z,74.37
2023-03-08T19:10:01.609Z,74.06
2023-03-08T19:12:37.449Z,74.51
2023-03-08T19:15:11.680Z,74.23
2023-03-08T19:17:44.471Z,74.57
2023-03-08T19:20:17.142Z,75.17
2023-03-08T19:22:51.438Z,75.23
2023-03-08T19:25:24.505Z,74.85
2023-03-08T19:27:57.276Z,75.04
2023-03-08T19:30:29.913Z,74.98
2023-03-08T19:33:02.935Z,75.06
2023-03-08T19:35:35.899Z,75.57
2023-03-08T19:38:10.185Z,75.11
2023-03-08T19:40:44.310Z,75.45
2023-03-08T19:43:17.077Z,75.30
2023-03-08T19:45:50.424Z,75.24
2023-03-08T19:48:23.197Z,75.43
2023-03-08T19:50:55.908Z,75.08
2023-03-08T19:53:30.095Z,74.80
2023-03-08T19:56:03.066Z,74.96
2023-03-08T19:58:35.901Z,75.26
2023-03-08T20:01:09.818Z,74.97
2023-03-08T20:03:42.715Z,75.24
2023-03-08T20:06:22.324Z,75.52
2023-03-08T20:08:57.129Z,75.22
2023-03-08T20:11:30.193Z,75.54
2023-03-08T20:14:03.040Z,75.94
2023-03-08T20:16:35.977Z,75.45
2023-03-08T20:19:08.792Z,75.51
2023-03-08T20:21:41.852Z,75.49
2023-03-08T20:24:18.514Z,75.84
2023-03-08T20:26:51.475Z,75.71
2023-03-08T20:29:24.729Z,76.03
2023-03-08T20:31:58.509Z,75.97
2023-03-08T20:34:32.358Z,75.98
2023-03-08T20:37:05.155Z,76.01
2023-03-08T20:39:39.694Z,75.78
2023-03-08T20:42:12.449Z,76.03
2023-03-08T20:44:45.314Z,76.20
2023-03-08T20:47:18.249Z,75.76
2023-03-08T20:49:51.020Z,76.23
2023-03-08T20:52:23.897Z,76.22
2023-03-08T20:54:58.107Z,76.19
2023-03-08T20:57:30.973Z,76.66
2023-03-08T21:00:04.870Z,76.46
2023-03-08T21:02:38.110Z,76.14
2023-03-08T21:05:11.224Z,75.98
2023-03-08T21:07:43.996Z,75.88
2023-03-08T21:10:19.093Z,75.83
2023-03-08T21:12:52.014Z,75.59
2023-03-08T21:15:25.039Z,75.38
2023-03-08T21:17:57.820Z,75.23
2023-03-08T21:20:30.607Z,75.08
2023-03-08T21:23:03.456Z,74.69
2023-03-08T21:25:38.817Z,74.39
2023-03-08T21:28:11.570Z,74.65
2023-03-08T21:30:44.582Z,74.88
2023-03-08T21:33:17.278Z,74.98
2023-03-08T21:35:50.743Z,75.54
2023-03-08T21:38:24.805Z,75.60
2023-03-08T21:40:59.573Z,75.57
2023-03-08T21:43:32.407Z,75.70
2023-03-08T21:46:05.413Z,76.20
2023-03-08T21:48:38.192Z,76.56
2023-03-08T21:51:11.329Z,76.15
2023-03-08T21:53:44.779Z,76.33
2023-03-08T21:56:19.676Z,76.51
2023-03-08T21:58:52.484Z,76.44
2023-03-08T22:01:26.831Z,76.47
2023-03-08T22:04:00.463Z,76.69
2023-03-08T22:06:33.547Z,76.50
2023-03-08T22:09:06.449Z,76.24
2023-03-08T22:11:41.080Z,76.44
2023-03-08T22:14:13.898Z,76.57
2023-03-08T22:16:47.140Z,76.03
2023-03-08T22:19:19.927Z,76.27
2023-03-08T22:21:53.087Z,75.69
2023-03-08T22:24:25.952Z,76.24
2023-03-08T22:27:00.121Z,76.34
2023-03-08T22:29:33.867Z,76.13
2023-03-08T22:32:07.986Z,76.33
2023-03-08T22:34:40.999Z,76.52
2023-03-08T22:37:13.819Z,76.16
2023-03-08T22:39:46.757Z,76.42
2023-03-08T22:42:20.950Z,76.73
2023-03-08T22:44:53.913Z,76.50
2023-03-08T22:47:26.876Z,76.65
2023-03-08T22:49:59.561Z,76.93
2023-03-08T22:52:32.302Z,76.77
2023-03-08T22:55:05.223Z,76.69
2023-03-08T22:57:39.344Z,76.88
2023-03-08T23:00:15.297Z,76.82
2023-03-08T23:02:50.785Z,76.67
2023-03-08T23:05:28.813Z,77.08
2023-03-08T23:08:02.441Z,77.03
2023-03-08T23:10:44.287Z,77.24
2023-03-08T23:13:32.757Z,77.23
2023-03-08T23:16:07.808Z,77.64
2023-03-08T23:18:41.111Z,77.33
2023-03-08T23:21:15.278Z,77.49
2023-03-08T23:23:48.182Z,77.19
2023-03-08T23:26:24.472Z,77.21
2023-03-08T23:29:00.706Z,76.92
2023-03-08T23:31:34.699Z,76.82
2023-03-08T23:34:07.598Z,76.69
2023-03-08T23:36:40.307Z,76.39
2023-03-08T23:39:12.964Z,76.22
2023-03-08T23:41:45.799Z,76.33
2023-03-08T23:44:19.974Z,75.96
2023-03-08T23:46:52.793Z,75.77
2023-03-08T23:49:25.492Z,75.49
2023-03-08T23:51:58.149Z,72.54
2023-03-08T23:54:30.879Z,75.87
2023-03-08T23:57:03.587Z,75.78
2023-03-08T23:59:37.687Z,75.96
